Terminal Aerodrome Forecast
Issued by NWS Denver/Boulder, CO

Home | Current Version | Previous Version | Text Only | Print | Product List | Glossary On
Versions: 1 2 3 4 5 6 7 8 9 10 11 12 13 14 15 16 17 18 19 20 21 22 23 24 25 26 27 28 29 30 31 32 33 34 35 36 37 38 39 40 41 42 43 44 45 46 47 48 49 50
000
FTUS45 KBOU 302256 AAD
TAFDEN
TAF AMD
KDEN 302256Z 3023/3124 11007KT 5SM -SHRA BKN025 BKN090
      TEMPO 3023/3024 1SM RA BR BKN015
     FM310000 09010KT P6SM VCSH BKN040 BKN060
      TEMPO 3100/3103 3SM RA BKN025
     FM310300 24005KT P6SM SCT045 BKN080
     FM310900 31005KT P6SM VCFG SCT005
      TEMPO 3110/3114 1/2SM FG BKN005
     FM311500 31005KT P6SM SCT015 SCT080
     FM311700 35007KT P6SM SCT060 SCT120=

USA.gov is the U.S. government's official web portal to all federal, state and local government web resources and services.